Time;durP1;ratioP1;P1;durP2;ratioP2;P2;SDS_P1;SDS_P2;PMS_P1;PMS_P2;Temp;Humidity;BMP_temperature;BMP_pressure;BME280_temperature;BME280_humidity;BME280_pressure;Samples;Min_cycle;Max_cycle;Signal;HPM_P1;HPM_P2
2024/01/15 00:01:30;;;;;;;104.70;39.47;;;;;;;-0.92;69.53;99336.31;3120665;28;20151;-64
2024/01/15 00:03:02;;;;;;;107.22;39.63;;;;;;;-0.90;69.58;99341.44;3120585;28;20041;-64
2024/01/15 00:04:37;;;;;;;114.03;39.88;;;;;;;-0.91;69.43;99345.69;3117970;28;20084;-64
2024/01/15 00:06:09;;;;;;;106.68;39.63;;;;;;;-0.94;69.66;99336.34;3119805;28;20508;-63
2024/01/15 00:07:39;;;;;;;119.85;41.03;;;;;;;-0.95;69.71;99337.22;3120474;28;20053;-64
2024/01/15 00:09:11;;;;;;;121.13;42.08;;;;;;;-0.94;69.82;99332.94;3120628;28;20056;-63
2024/01/15 00:10:43;;;;;;;124.60;42.45;;;;;;;-0.94;69.89;99335.50;3120602;28;20064;-64
2024/01/15 00:12:15;;;;;;;115.38;41.00;;;;;;;-0.94;69.91;99325.28;3120617;28;20099;-64
2024/01/15 00:13:46;;;;;;;110.95;38.97;;;;;;;-0.95;69.88;99327.00;3120485;28;20045;-64
2024/01/15 00:15:17;;;;;;;106.60;42.22;;;;;;;-0.96;69.77;99322.72;3120119;28;20068;-66
2024/01/15 00:16:50;;;;;;;124.68;41.47;;;;;;;-1.07;69.98;99309.16;3120261;28;20060;-68
2024/01/15 00:18:22;;;;;;;122.22;40.42;;;;;;;-1.01;70.18;99327.00;3120207;28;20061;-67
2024/01/15 00:19:52;;;;;;;127.18;41.42;;;;;;;-1.01;70.21;99334.66;3120726;28;20068;-66
2024/01/15 00:21:24;;;;;;;133.13;40.95;;;;;;;-1.00;70.15;99332.97;3125078;28;20061;-66
2024/01/15 00:22:56;;;;;;;114.63;42.42;;;;;;;-1.00;70.25;99326.16;3120432;28;20048;-66
2024/01/15 00:24:27;;;;;;;119.13;39.45;;;;;;;-0.98;70.47;99331.25;3120145;28;20114;-66
2024/01/15 00:26:00;;;;;;;129.30;42.92;;;;;;;-1.88;70.40;99181.91;3120393;28;20053;-66
2024/01/15 00:27:32;;;;;;;;;;;;;;;-1.10;70.54;99324.50;3120865;28;20080;-66
2024/01/15 00:29:03;;;;;;;107.28;35.22;;;;;;;-1.07;70.56;99327.03;3120262;28;19932;-66
2024/01/15 00:30:34;;;;;;;111.28;39.85;;;;;;;-1.05;70.52;99324.47;3120201;28;20371;-67
2024/01/15 00:32:06;;;;;;;113.75;40.28;;;;;;;-1.03;70.53;99330.44;3120181;28;20163;-67
2024/01/15 00:33:37;;;;;;;120.22;41.25;;;;;;;-1.02;70.56;99329.56;3120016;28;20522;-66
2024/01/15 00:35:08;;;;;;;115.20;41.88;;;;;;;-1.00;70.49;99330.44;3120493;28;20057;-66
2024/01/15 00:36:40;;;;;;;122.78;40.45;;;;;;;-1.00;70.54;99330.44;3120420;28;20118;-66
2024/01/15 00:38:11;;;;;;;109.65;41.30;;;;;;;-1.00;70.40;99326.16;3120036;28;20090;-66
2024/01/15 00:39:43;;;;;;;121.88;41.08;;;;;;;-0.99;70.45;99316.78;3120060;28;20056;-66
2024/01/15 00:41:15;;;;;;;108.28;39.00;;;;;;;-1.71;70.29;99203.09;3120363;28;20049;-66
2024/01/15 00:42:47;;;;;;;109.23;40.20;;;;;;;-1.03;70.40;99315.97;3120062;28;20121;-67
2024/01/15 00:44:18;;;;;;;112.88;40.72;;;;;;;-1.02;70.34;99312.53;3119909;28;20060;-66
2024/01/15 00:45:50;;;;;;;104.72;40.05;;;;;;;-1.02;70.27;99322.75;3119685;28;20490;-66
2024/01/15 00:47:20;;;;;;;124.97;42.55;;;;;;;-1.06;70.19;99310.88;3120370;28;20053;-66
2024/01/15 00:48:52;;;;;;;101.57;40.42;;;;;;;-1.05;70.53;99312.56;3120337;28;20072;-64
2024/01/15 00:50:23;;;;;;;112.57;38.22;;;;;;;-1.05;70.55;99316.81;3119895;28;20056;-63
2024/01/15 00:51:55;;;;;;;118.63;41.30;;;;;;;-1.07;70.46;99313.41;3120109;28;20046;-63
2024/01/15 00:53:26;;;;;;;105.28;39.55;;;;;;;-1.12;70.66;99305.78;3119869;28;20045;-62
2024/01/15 00:54:57;;;;;;;123.80;40.53;;;;;;;-1.22;70.67;99283.69;3119646;28;20053;-62
2024/01/15 00:56:29;;;;;;;118.55;39.13;;;;;;;-1.10;70.49;99298.94;3120106;28;20065;-63
2024/01/15 00:58:01;;;;;;;111.50;38.58;;;;;;;-1.09;70.62;99308.31;3120053;28;20132;-63
2024/01/15 00:59:32;;;;;;;105.88;38.05;;;;;;;-1.14;70.66;99302.38;3119826;28;20827;-63
2024/01/15 01:01:04;;;;;;;97.07;35.70;;;;;;;-1.12;70.69;99308.34;3119853;28;20045;-63
2024/01/15 01:02:35;;;;;;;104.43;37.53;;;;;;;-1.15;70.73;99306.66;3119861;28;20049;-64
2024/01/15 01:04:07;;;;;;;104.13;34.38;;;;;;;-1.15;70.95;99305.81;3119675;28;20456;-63
2024/01/15 01:05:38;;;;;;;91.28;35.97;;;;;;;-1.16;70.99;99310.03;3119873;28;20072;-63
2024/01/15 01:07:09;;;;;;;92.70;33.78;;;;;;;-1.16;71.01;99311.75;3119904;28;20071;-61
2024/01/15 01:08:40;;;;;;;82.85;33.40;;;;;;;-1.17;71.22;99305.81;3119805;28;20050;-61
2024/01/15 01:10:12;;;;;;;89.00;34.47;;;;;;;-1.18;71.20;99306.66;3119901;28;20072;-62
2024/01/15 01:11:44;;;;;;;93.10;34.20;;;;;;;-1.18;71.19;99298.16;3119332;28;20064;-62
2024/01/15 01:13:16;;;;;;;89.43;33.30;;;;;;;-1.20;71.01;99298.16;3119483;28;20495;-63
2024/01/15 01:14:47;;;;;;;98.80;34.67;;;;;;;-1.17;71.22;99297.28;3119961;28;20049;-63
2024/01/15 01:16:18;;;;;;;96.18;34.58;;;;;;;-1.81;71.12;99180.16;3121297;28;20120;-63
2024/01/15 01:17:50;;;;;;;86.97;33.67;;;;;;;-1.16;71.17;99288.75;3123036;28;20049;-62
2024/01/15 01:19:21;;;;;;;100.45;35.05;;;;;;;-1.16;71.17;99291.31;3119718;28;20483;-62
2024/01/15 01:20:53;;;;;;;89.20;34.63;;;;;;;-1.21;71.28;99288.81;3119780;28;20057;-63
2024/01/15 01:22:24;;;;;;;94.15;35.45;;;;;;;-1.19;71.34;99297.28;3119705;28;20073;-62
2024/01/15 01:23:55;;;;;;;94.28;34.25;;;;;;;-1.19;71.38;99302.41;3119720;28;20060;-63
2024/01/15 01:25:26;;;;;;;103.95;35.97;;;;;;;-1.23;71.54;99282.00;3120068;28;20056;-62
2024/01/15 01:27:00;;;;;;;93.88;34.42;;;;;;;-1.20;71.42;99295.59;3120132;28;20199;-63
2024/01/15 01:28:31;;;;;;;101.22;34.08;;;;;;;-1.23;71.47;99297.34;3119552;28;20164;-62
2024/01/15 01:30:03;;;;;;;95.05;33.60;;;;;;;-1.32;71.47;99288.00;3119355;28;20076;-62
2024/01/15 01:31:34;;;;;;;86.63;31.67;;;;;;;-1.27;71.49;99295.63;3119700;28;20057;-62
2024/01/15 01:33:05;;;;;;;91.13;32.97;;;;;;;-1.25;71.61;99299.03;3119542;28;20049;-63
2024/01/15 01:34:42;;;;;;;96.10;31.40;;;;;;;-1.25;71.55;99297.31;3119379;28;20056;-62
2024/01/15 01:36:14;;;;;;;85.72;31.35;;;;;;;-1.26;71.56;99295.63;3119644;28;20433;-67
2024/01/15 01:37:44;;;;;;;86.22;32.08;;;;;;;-1.25;71.58;99294.78;3119640;28;20160;-66
2024/01/15 01:39:16;;;;;;;95.50;32.40;;;;;;;-1.26;71.55;99294.78;3119607;28;20156;-66
2024/01/15 01:40:47;;;;;;;88.22;32.65;;;;;;;-1.26;71.59;99287.13;3119656;28;20455;-66
2024/01/15 01:42:20;;;;;;;76.97;31.17;;;;;;;-1.27;71.52;99296.50;3118148;28;20053;-67
2024/01/15 01:43:51;;;;;;;98.65;35.17;;;;;;;-1.30;71.72;99296.53;3119675;28;20503;-67
2024/01/15 01:45:23;;;;;;;89.35;33.90;;;;;;;-1.32;71.67;99300.78;3119434;28;20056;-67
2024/01/15 01:46:54;;;;;;;78.80;32.50;;;;;;;-1.33;71.52;99296.53;3119520;28;20055;-68
2024/01/15 01:48:26;;;;;;;94.55;33.75;;;;;;;-1.35;71.46;99293.13;3119204;28;20053;-73
2024/01/15 01:49:57;;;;;;;93.38;32.28;;;;;;;-1.35;71.57;99290.59;3119391;28;20065;-72
2024/01/15 01:51:28;;;;;;;81.03;34.30;;;;;;;-1.35;71.61;99293.13;3119466;28;20057;-70
2024/01/15 01:53:00;;;;;;;101.15;33.95;;;;;;;-1.37;71.65;99287.19;3119296;28;20194;-71
2024/01/15 01:54:34;;;;;;;99.30;35.72;;;;;;;-1.45;71.66;99268.47;3119264;28;20179;-71
2024/01/15 01:56:06;;;;;;;91.50;35.65;;;;;;;-1.39;71.65;99282.09;3119323;28;20053;-67
2024/01/15 01:57:39;;;;;;;105.18;38.15;;;;;;;-1.38;71.65;99282.94;3119461;28;20127;-69
2024/01/15 01:59:11;;;;;;;;;;;;;;;-1.51;71.77;99277.06;3119658;28;20048;-70
2024/01/15 02:00:43;;;;;;;99.18;32.75;;;;;;;-1.62;71.74;99258.38;3119117;28;20016;-70
2024/01/15 02:02:15;;;;;;;90.80;33.25;;;;;;;-1.46;71.59;99277.84;3119774;28;20060;-68
2024/01/15 02:03:46;;;;;;;112.35;36.35;;;;;;;-1.46;71.62;99275.31;3119419;28;20118;-68
2024/01/15 02:05:20;;;;;;;102.10;35.53;;;;;;;-1.46;71.57;99272.75;3119176;28;20049;-69
2024/01/15 02:06:51;;;;;;;106.03;35.30;;;;;;;-1.47;71.51;99275.31;3119327;28;20072;-68
2024/01/15 02:08:23;;;;;;;97.13;34.60;;;;;;;-1.48;71.62;99271.94;3118955;28;20412;-69
2024/01/15 02:09:53;;;;;;;103.55;36.70;;;;;;;-1.47;71.73;99277.88;3119237;28;20104;-69
2024/01/15 02:11:25;;;;;;;107.18;37.83;;;;;;;-1.47;71.55;99277.88;3119316;28;20166;-68
2024/01/15 02:12:58;;;;;;;93.07;34.60;;;;;;;-1.48;71.61;99282.16;3124203;28;20049;-67
2024/01/15 02:14:29;;;;;;;85.45;32.47;;;;;;;-1.49;71.81;99282.13;3119143;28;20055;-66
2024/01/15 02:16:01;;;;;;;76.32;29.55;;;;;;;-1.52;71.90;99287.25;3119032;28;20143;-66
2024/01/15 02:17:32;;;;;;;82.78;30.17;;;;;;;-1.54;71.85;99281.31;3118954;28;20049;-67
2024/01/15 02:19:04;;;;;;;88.78;32.53;;;;;;;-1.53;71.77;99278.75;3119530;28;20058;-68
2024/01/15 02:20:35;;;;;;;74.13;27.85;;;;;;;-1.51;71.94;99287.25;3119080;28;20053;-67
2024/01/15 02:22:07;;;;;;;71.20;27.00;;;;;;;-1.52;72.05;99285.56;3119389;28;20045;-67
2024/01/15 02:23:39;;;;;;;64.50;24.95;;;;;;;-1.50;72.06;99278.75;3119291;28;20045;-67
2024/01/15 02:25:11;;;;;;;54.65;22.75;;;;;;;-1.53;72.13;99267.69;3119410;28;20449;-66
2024/01/15 02:26:42;;;;;;;57.60;23.27;;;;;;;-1.54;72.12;99276.19;3119181;28;20056;-67
2024/01/15 02:28:15;;;;;;;59.10;21.80;;;;;;;-1.56;72.28;99277.94;3119098;28;20057;-67
2024/01/15 02:29:46;;;;;;;56.30;20.95;;;;;;;-1.61;72.29;99271.13;3119063;28;20053;-65
2024/01/15 02:31:18;;;;;;;53.83;22.33;;;;;;;-1.61;72.59;99278.78;3118975;28;20511;-66
2024/01/15 02:32:49;;;;;;;53.58;23.80;;;;;;;-1.58;72.33;99277.06;3119152;28;20049;-65
2024/01/15 02:34:21;;;;;;;53.05;23.10;;;;;;;-1.59;72.47;99276.22;3118843;28;20407;-66
2024/01/15 02:35:52;;;;;;;57.08;22.52;;;;;;;-1.61;72.27;99278.78;3119496;28;20052;-66
2024/01/15 02:37:23;;;;;;;58.35;23.20;;;;;;;-1.59;72.55;99285.59;3119203;28;20053;-65
2024/01/15 02:38:56;;;;;;;62.67;21.98;;;;;;;-1.64;72.63;99272.84;3119058;28;20049;-66
2024/01/15 02:40:27;;;;;;;61.20;23.15;;;;;;;-1.63;72.54;99283.06;3119865;28;20045;-66
2024/01/15 02:41:58;;;;;;;54.92;22.95;;;;;;;-1.78;72.83;99254.19;3121669;28;20049;-66
2024/01/15 02:43:30;;;;;;;59.92;24.20;;;;;;;-1.66;72.69;99277.09;3121660;28;20057;-65
2024/01/15 02:45:01;;;;;;;62.75;24.13;;;;;;;-1.69;72.84;99272.84;3111541;28;20131;-65
2024/01/15 02:46:32;;;;;;;58.65;23.02;;;;;;;-1.73;72.87;99281.38;3121443;28;20128;-65
2024/01/15 02:48:04;;;;;;;57.90;22.73;;;;;;;-1.81;72.91;99266.94;3121481;28;20084;-65
2024/01/15 02:49:35;;;;;;;56.95;23.08;;;;;;;-1.73;73.01;99283.94;3121759;28;20245;-65
2024/01/15 02:51:06;;;;;;;64.55;23.48;;;;;;;-1.72;73.17;99277.13;3121500;28;20053;-64
2024/01/15 02:52:38;;;;;;;58.63;23.25;;;;;;;-1.72;72.93;99277.97;3121409;28;20606;-65
2024/01/15 02:54:10;;;;;;;58.20;23.33;;;;;;;-1.71;73.05;99274.56;3121138;28;20075;-65
2024/01/15 02:55:42;;;;;;;61.47;23.15;;;;;;;-1.71;72.74;99269.47;3121424;28;20057;-65
2024/01/15 02:57:13;;;;;;;60.10;22.67;;;;;;;-1.71;72.76;99274.56;3121298;28;20049;-64
2024/01/15 02:58:44;;;;;;;58.63;22.80;;;;;;;-1.73;72.65;99268.63;3121522;28;20057;-64
2024/01/15 03:00:16;;;;;;;54.58;22.73;;;;;;;-1.72;72.59;99267.75;3121103;28;20045;-67
2024/01/15 03:01:47;;;;;;;58.65;23.40;;;;;;;-1.72;72.42;99261.81;3121023;28;20049;-66
2024/01/15 03:03:18;;;;;;;53.65;22.58;;;;;;;-1.73;72.40;99260.13;3121301;28;20451;-66
2024/01/15 03:04:50;;;;;;;65.90;23.67;;;;;;;-1.72;72.49;99261.81;3121038;28;20052;-66
2024/01/15 03:06:22;;;;;;;67.20;22.42;;;;;;;-1.73;72.50;99263.50;3121230;28;20081;-66
2024/01/15 03:07:53;;;;;;;59.83;23.15;;;;;;;-1.73;72.63;99260.97;3121155;28;20495;-67
2024/01/15 03:09:26;;;;;;;62.58;23.35;;;;;;;-1.72;72.50;99262.66;3121275;28;20049;-66
2024/01/15 03:10:58;;;;;;;56.42;23.08;;;;;;;-1.75;72.46;99266.94;3121597;28;20053;-66
2024/01/15 03:12:29;;;;;;;60.40;23.73;;;;;;;-1.80;72.67;99256.75;3121041;28;20053;-65
2024/01/15 03:14:01;;;;;;;59.22;22.80;;;;;;;-1.81;72.51;99257.59;3121062;28;20076;-66
2024/01/15 03:15:32;;;;;;;64.35;25.15;;;;;;;-1.86;72.72;99259.31;3121452;28;20053;-67
2024/01/15 03:17:04;;;;;;;60.92;23.70;;;;;;;-1.96;72.70;99250.84;3121147;28;20407;-66
2024/01/15 03:18:35;;;;;;;67.00;26.08;;;;;;;-1.96;72.88;99263.59;3121320;28;20179;-67
2024/01/15 03:20:07;;;;;;;74.97;26.70;;;;;;;-2.02;73.12;99268.72;3121241;28;20446;-66
2024/01/15 03:21:39;;;;;;;72.63;27.02;;;;;;;-2.08;73.29;99261.94;3121284;28;20285;-69
2024/01/15 03:23:10;;;;;;;62.50;26.13;;;;;;;-2.07;73.26;99260.22;3121194;28;20053;-69
2024/01/15 03:24:43;;;;;;;66.25;25.38;;;;;;;-2.07;73.17;99250.88;3121166;28;20050;-68
2024/01/15 03:26:15;;;;;;;61.83;25.48;;;;;;;-2.09;73.41;99249.19;3121145;28;20463;-66
2024/01/15 03:27:47;;;;;;;64.07;25.42;;;;;;;-2.12;73.27;99251.75;3121196;28;20060;-66
2024/01/15 03:29:17;;;;;;;67.57;25.42;;;;;;;-2.15;73.44;99250.06;3120945;28;20163;-65
2024/01/15 03:30:49;;;;;;;68.45;25.55;;;;;;;-2.16;73.50;99248.38;3120738;28;20049;-68
2024/01/15 03:32:20;;;;;;;71.13;26.15;;;;;;;-2.16;73.38;99245.81;3121144;28;20057;-68
2024/01/15 03:33:52;;;;;;;56.05;24.75;;;;;;;-2.15;73.32;99246.66;3120898;28;20042;-66
2024/01/15 03:35:22;;;;;;;60.15;25.65;;;;;;;-2.15;73.28;99242.41;3121069;28;20073;-66
2024/01/15 03:36:54;;;;;;;52.78;22.63;;;;;;;-2.17;73.30;99238.16;3120725;28;20538;-67
2024/01/15 03:38:28;;;;;;;54.90;23.08;;;;;;;-2.17;73.26;99233.06;3120818;28;20362;-65
2024/01/15 03:40:01;;;;;;;63.15;24.33;;;;;;;-2.17;73.35;99238.16;3120951;28;20510;-66
2024/01/15 03:41:33;;;;;;;65.05;25.70;;;;;;;-2.20;73.23;99239.00;3121140;28;20224;-68
2024/01/15 03:43:05;;;;;;;59.90;23.10;;;;;;;-2.19;73.32;99253.47;3120892;28;20447;-68
2024/01/15 03:44:35;;;;;;;58.30;23.60;;;;;;;-2.18;73.35;99255.16;3121062;28;20052;-67
2024/01/15 03:46:08;;;;;;;59.08;23.67;;;;;;;-2.19;73.39;99258.59;3120747;28;20458;-68
2024/01/15 03:47:39;;;;;;;64.80;23.60;;;;;;;-2.19;73.33;99247.50;3120870;28;20057;-68
2024/01/15 03:49:11;;;;;;;56.65;22.30;;;;;;;-2.19;73.23;99253.47;3120922;28;20049;-68
2024/01/15 03:50:42;;;;;;;60.75;24.02;;;;;;;-2.22;73.21;99260.25;3120655;28;20049;-68
2024/01/15 03:52:14;;;;;;;58.17;22.75;;;;;;;-2.27;73.31;99256.91;3119856;28;20187;-67
2024/01/15 03:53:45;;;;;;;58.67;21.60;;;;;;;-3.12;73.22;99127.03;3120901;28;20046;-68
2024/01/15 03:55:18;;;;;;;51.53;21.90;;;;;;;-2.25;73.21;99263.66;3121085;28;20046;-67
2024/01/15 03:56:49;;;;;;;47.97;21.58;;;;;;;-2.27;73.18;99264.56;3120883;28;20049;-65
2024/01/15 03:58:21;;;;;;;58.17;23.05;;;;;;;-2.29;73.32;99260.28;3120737;28;20064;-66
2024/01/15 03:59:51;;;;;;;55.75;21.63;;;;;;;-2.32;73.13;99249.25;3120713;28;20514;-67
2024/01/15 04:01:23;;;;;;;54.22;21.20;;;;;;;-2.29;73.23;99251.78;3118946;28;20077;-68
2024/01/15 04:02:54;;;;;;;51.17;20.88;;;;;;;-2.29;73.35;99254.34;3120760;28;20068;-68
2024/01/15 04:04:26;;;;;;;52.72;22.17;;;;;;;-2.29;73.26;99251.78;3120571;28;20452;-67
2024/01/15 04:05:58;;;;;;;50.33;21.20;;;;;;;-2.29;73.33;99250.06;3125841;28;20072;-69
2024/01/15 04:07:28;;;;;;;54.60;21.00;;;;;;;-2.27;73.29;99250.09;3120955;28;20159;-65
2024/01/15 04:09:00;;;;;;;48.25;19.92;;;;;;;-2.26;73.23;99250.94;3120803;28;20088;-64
2024/01/15 04:10:32;;;;;;;56.05;22.83;;;;;;;-2.25;73.16;99245.81;3120720;28;20054;-66
2024/01/15 04:12:04;;;;;;;49.72;20.55;;;;;;;-2.25;73.10;99243.25;3120524;28;20088;-65
2024/01/15 04:13:35;;;;;;;50.65;20.13;;;;;;;-2.25;73.25;99248.38;3120597;28;20052;-66
2024/01/15 04:15:07;;;;;;;55.80;20.95;;;;;;;-2.24;73.22;99241.59;3120740;28;20053;-68
2024/01/15 04:16:38;;;;;;;51.58;19.88;;;;;;;-2.23;73.33;99253.47;3120427;28;20395;-67
2024/01/15 04:18:10;;;;;;;51.28;19.90;;;;;;;-2.22;73.15;99256.00;3120613;28;20060;-66
2024/01/15 04:19:44;;;;;;;59.47;21.30;;;;;;;-2.20;73.16;99256.03;3120468;28;20053;-67
2024/01/15 04:21:15;;;;;;;56.28;20.20;;;;;;;-2.21;73.13;99264.53;3120764;28;20053;-68
2024/01/15 04:22:46;;;;;;;58.33;21.13;;;;;;;-2.20;73.30;99261.97;3120324;28;20042;-68
2024/01/15 04:24:18;;;;;;;52.08;21.00;;;;;;;-2.19;73.22;99260.25;3120802;28;20435;-65
2024/01/15 04:25:51;;;;;;;55.67;20.85;;;;;;;-2.20;73.23;99243.25;3120245;28;20057;-67
2024/01/15 04:27:22;;;;;;;47.65;21.13;;;;;;;-2.27;73.30;99236.50;3120483;28;20049;-67
2024/01/15 04:28:54;;;;;;;54.97;21.63;;;;;;;-2.32;73.46;99233.94;3120383;28;20057;-67
2024/01/15 04:30:24;;;;;;;47.65;20.95;;;;;;;-2.30;73.55;99239.91;3120120;28;20050;-66
2024/01/15 04:31:56;;;;;;;49.20;20.83;;;;;;;-2.31;73.69;99233.94;3120488;28;20053;-68
2024/01/15 04:33:27;;;;;;;51.22;19.85;;;;;;;-2.34;73.52;99233.97;3120490;28;20053;-66
2024/01/15 04:34:59;;;;;;;56.83;23.25;;;;;;;-2.73;73.33;99160.94;3120404;28;20084;-68
2024/01/15 04:36:31;;;;;;;51.30;21.40;;;;;;;-2.32;73.47;99228.84;3120586;28;20533;-67
2024/01/15 04:38:03;;;;;;;54.72;21.90;;;;;;;-2.32;73.37;99229.69;3120164;28;20056;-65
2024/01/15 04:39:33;;;;;;;57.90;21.85;;;;;;;-2.33;73.47;99224.59;3120852;28;20049;-66
2024/01/15 04:41:07;;;;;;;62.30;22.65;;;;;;;-2.36;73.58;99228.00;3120404;28;20144;-65
2024/01/15 04:42:37;;;;;;;56.72;22.80;;;;;;;-2.42;73.48;99227.19;3120241;28;20519;-66
2024/01/15 04:44:09;;;;;;;52.80;22.05;;;;;;;-2.41;73.52;99227.16;3120496;28;20049;-67
2024/01/15 04:45:40;;;;;;;56.22;21.48;;;;;;;-2.43;73.59;99225.47;3120128;28;20529;-64
2024/01/15 04:47:12;;;;;;;57.60;23.23;;;;;;;-2.42;73.57;99230.56;3120522;28;20053;-66
2024/01/15 04:48:43;;;;;;;60.95;23.10;;;;;;;-2.42;73.37;99229.72;3120469;28;20107;-65
2024/01/15 04:50:15;;;;;;;60.67;23.35;;;;;;;-2.42;73.48;99229.72;3120272;28;20049;-65
2024/01/15 04:51:45;;;;;;;59.80;23.77;;;;;;;-2.41;73.49;99226.31;3120216;28;20128;-64
2024/01/15 04:53:17;;;;;;;59.05;24.80;;;;;;;-2.41;73.28;99221.22;3120629;28;20057;-66
2024/01/15 04:54:49;;;;;;;71.13;27.27;;;;;;;-2.45;73.28;99206.78;3120073;28;20140;-65
2024/01/15 04:56:21;;;;;;;67.27;27.10;;;;;;;-2.42;73.25;99216.97;3119557;28;20049;-66
2024/01/15 04:57:53;;;;;;;56.15;22.50;;;;;;;-2.43;73.25;99225.47;3120045;28;20084;-65
2024/01/15 04:59:24;;;;;;;63.78;23.33;;;;;;;-2.44;73.16;99228.88;3119576;28;20538;-63
2024/01/15 05:00:56;;;;;;;57.08;22.67;;;;;;;-2.45;73.26;99222.09;3119808;28;20048;-65
2024/01/15 05:02:28;;;;;;;60.67;23.55;;;;;;;-2.48;73.40;99227.16;3119980;28;20049;-66
2024/01/15 05:03:59;;;;;;;57.00;23.95;;;;;;;-2.49;73.52;99220.38;3119692;28;20076;-65
2024/01/15 05:05:30;;;;;;;53.67;22.73;;;;;;;-2.54;73.62;99212.75;3119902;28;20061;-67
2024/01/15 05:07:01;;;;;;;61.58;24.08;;;;;;;-2.54;73.23;99218.69;3119835;28;20502;-66
2024/01/15 05:08:33;;;;;;;64.00;24.65;;;;;;;-2.64;73.52;99190.66;3119721;28;20073;-67
2024/01/15 05:10:05;;;;;;;62.10;23.40;;;;;;;-2.52;73.27;99209.31;3120026;28;20060;-72
2024/01/15 05:11:38;;;;;;;62.42;23.50;;;;;;;-2.52;73.25;99205.94;3119588;28;20049;-69
2024/01/15 05:13:09;;;;;;;59.47;24.70;;;;;;;-2.54;73.18;99198.28;3119912;28;20057;-74
2024/01/15 05:14:40;;;;;;;73.70;25.60;;;;;;;-2.52;73.18;99190.63;3120077;28;20514;-74
2024/01/15 05:16:11;;;;;;;65.13;26.83;;;;;;;-2.55;73.28;99186.38;3119357;28;20076;-72
2024/01/15 05:17:43;;;;;;;62.30;26.27;;;;;;;-2.52;73.22;99194.03;3119846;28;20045;-69
2024/01/15 05:19:14;;;;;;;65.47;24.10;;;;;;;-2.52;73.20;99198.28;3119833;28;20049;-70
2024/01/15 05:20:46;;;;;;;71.50;25.40;;;;;;;-2.52;73.33;99194.03;3119677;28;20053;-70
2024/01/15 05:22:16;;;;;;;67.55;25.63;;;;;;;-2.50;73.26;99190.63;3119666;28;20475;-73
2024/01/15 05:23:48;;;;;;;58.45;26.05;;;;;;;-2.49;73.38;99188.06;3119162;28;20057;-73
2024/01/15 05:25:19;;;;;;;64.28;24.98;;;;;;;-2.49;73.33;99188.06;3119583;28;20067;-69
2024/01/15 05:26:52;;;;;;;63.80;25.95;;;;;;;-2.52;73.31;99177.88;3119838;28;20511;-70
2024/01/15 05:28:23;;;;;;;61.58;25.83;;;;;;;-2.49;73.26;99182.13;3119622;28;20611;-70
2024/01/15 05:29:55;;;;;;;114.85;45.15;;;;;;;-2.48;73.36;99173.63;3120000;28;20045;-74
2024/01/15 05:31:26;;;;;;;79.03;31.15;;;;;;;-2.47;73.22;99178.72;3119924;28;20134;-69
2024/01/15 05:33:00;;;;;;;119.22;44.38;;;;;;;-2.38;73.38;99183.81;3119741;28;20045;-71
2024/01/15 05:34:30;;;;;;;88.38;36.42;;;;;;;-2.32;73.33;99178.69;3119565;28;20060;-65
2024/01/15 05:36:02;;;;;;;68.65;27.85;;;;;;;-2.30;73.27;99176.13;3119357;28;20072;-71
2024/01/15 05:37:33;;;;;;;81.43;27.23;;;;;;;-2.29;73.25;99175.28;3119425;28;20119;-73
2024/01/15 05:39:05;;;;;;;66.13;26.63;;;;;;;-2.28;73.08;99187.16;3119677;28;20140;-69
2024/01/15 05:40:37;;;;;;;73.68;28.52;;;;;;;-2.27;73.13;99182.94;3119346;28;20077;-71
2024/01/15 05:42:09;;;;;;;83.07;30.25;;;;;;;-2.27;72.99;99181.22;3119405;28;20455;-71
2024/01/15 05:43:41;;;;;;;71.28;29.20;;;;;;;-2.45;72.95;99150.69;3119360;28;20487;-72
2024/01/15 05:45:11;;;;;;;73.65;28.73;;;;;;;-2.31;72.92;99185.50;3119367;28;20064;-72
2024/01/15 05:46:43;;;;;;;77.47;28.33;;;;;;;-2.36;72.90;99171.06;3119279;28;20140;-71
2024/01/15 05:48:14;;;;;;;67.18;28.08;;;;;;;-2.33;73.02;99179.53;3119500;28;20122;-69
2024/01/15 05:49:46;;;;;;;64.22;27.90;;;;;;;-2.37;72.92;99177.84;3119375;28;20053;-67
2024/01/15 05:51:17;;;;;;;71.70;28.02;;;;;;;-2.33;72.94;99196.56;3119550;28;20076;-69
2024/01/15 05:52:49;;;;;;;69.70;28.60;;;;;;;-2.35;73.03;99204.19;3112650;28;20049;-70
2024/01/15 05:54:20;;;;;;;75.43;28.73;;;;;;;-2.37;73.05;99205.03;3118256;28;20053;-62
2024/01/15 05:55:52;;;;;;;75.78;28.88;;;;;;;-2.38;73.28;99203.34;3117058;28;20136;-64
2024/01/15 05:57:24;;;;;;;74.93;29.23;;;;;;;-2.79;73.35;99135.47;3117384;28;20050;-64
2024/01/15 05:58:56;;;;;;;72.00;29.30;;;;;;;-2.40;73.58;99207.59;3111746;28;20420;-67
2024/01/15 06:00:27;;;;;;;73.18;27.38;;;;;;;-2.40;73.70;99200.78;3118579;28;20056;-65
2024/01/15 06:01:59;;;;;;;74.80;28.63;;;;;;;-2.81;73.65;99132.06;3118978;28;20053;-68
2024/01/15 06:03:31;;;;;;;66.97;27.83;;;;;;;-2.40;73.81;99207.59;3118374;28;20510;-66
2024/01/15 06:05:02;;;;;;;60.67;25.20;;;;;;;-2.42;73.68;99214.44;3119021;28;20071;-63
2024/01/15 06:06:34;;;;;;;62.17;25.67;;;;;;;-2.44;73.68;99205.94;3118516;28;20049;-65
2024/01/15 06:08:18;;;;;;;55.97;23.17;;;;;;;-2.46;73.91;99193.16;3107474;28;20442;-65
2024/01/15 06:09:50;;;;;;;63.65;24.50;;;;;;;-2.47;73.81;99191.47;3117373;28;20049;-65
2024/01/15 06:11:21;;;;;;;69.05;27.05;;;;;;;-2.44;73.71;99188.06;3118415;28;20061;-62
2024/01/15 06:12:55;;;;;;;70.40;25.65;;;;;;;-2.42;73.86;99181.28;3118689;28;20053;-65
2024/01/15 06:14:26;;;;;;;66.13;26.65;;;;;;;-2.46;73.81;99169.38;3119227;28;20057;-64
2024/01/15 06:15:58;;;;;;;61.03;25.17;;;;;;;-2.40;73.62;99182.94;3118304;28;20144;-65
2024/01/15 06:17:28;;;;;;;63.65;24.58;;;;;;;-2.39;73.76;99187.22;3119114;28;20415;-65
2024/01/15 06:19:00;;;;;;;64.20;24.05;;;;;;;-2.38;73.86;99190.59;3119107;28;20064;-66
2024/01/15 06:20:32;;;;;;;62.55;24.73;;;;;;;-2.37;73.52;99194.84;3118841;28;20053;-65
2024/01/15 06:22:03;;;;;;;64.65;25.13;;;;;;;-2.36;73.78;99197.41;3119080;28;20057;-65
2024/01/15 06:23:35;;;;;;;69.57;26.08;;;;;;;-2.35;73.73;99211.84;3118103;28;20132;-65
2024/01/15 06:25:08;;;;;;;69.55;27.58;;;;;;;-2.36;73.70;99215.25;3115954;28;20100;-67
2024/01/15 06:26:39;;;;;;;69.95;25.73;;;;;;;-2.40;73.79;99210.16;3118475;28;20049;-66
2024/01/15 06:28:12;;;;;;;77.75;26.48;;;;;;;-2.32;73.96;99218.63;3119047;28;20060;-67
2024/01/15 06:29:46;;;;;;;65.85;26.83;;;;;;;-2.34;73.94;99218.66;3118399;28;20049;-68
2024/01/15 06:31:17;;;;;;;65.72;26.02;;;;;;;-2.27;73.93;99221.19;3118326;28;20049;-68
2024/01/15 06:32:50;;;;;;;70.55;27.48;;;;;;;-2.25;73.66;99211.81;3118899;28;20594;-69
2024/01/15 06:34:22;;;;;;;74.55;27.48;;;;;;;-2.24;73.66;99206.72;3119022;28;20053;-69
2024/01/15 06:35:52;;;;;;;67.38;27.30;;;;;;;-2.17;73.67;99212.66;3118959;28;20054;-70
2024/01/15 06:37:24;;;;;;;65.10;24.48;;;;;;;-2.14;73.55;99213.47;3119137;28;20053;-70
2024/01/15 06:38:55;;;;;;;64.63;25.50;;;;;;;-2.10;73.57;99221.97;3115685;28;20115;-69
2024/01/15 06:40:27;;;;;;;54.28;24.40;;;;;;;-2.07;73.42;99224.50;3115430;28;20137;-68
2024/01/15 06:41:58;;;;;;;57.50;23.63;;;;;;;-2.03;73.43;99221.09;3113716;28;20054;-69
2024/01/15 06:43:31;;;;;;;64.20;23.20;;;;;;;-1.99;73.26;99221.94;3113652;28;20056;-69
2024/01/15 06:45:03;;;;;;;;;;;;;;;-2.09;73.25;99214.31;3119360;28;20108;-69
2024/01/15 06:46:36;;;;;;;52.33;20.42;;;;;;;-2.04;73.25;99206.66;3118611;28;20063;-69
2024/01/15 06:48:07;;;;;;;55.45;20.52;;;;;;;-2.00;73.05;99215.16;3118874;28;20061;-70
2024/01/15 06:49:39;;;;;;;52.63;21.85;;;;;;;-1.96;73.10;99214.25;3118750;28;20049;-69
2024/01/15 06:51:10;;;;;;;51.88;20.83;;;;;;;-1.96;72.87;99206.63;3114855;28;20613;-70
2024/01/15 06:52:41;;;;;;;53.75;21.45;;;;;;;-1.91;72.78;99204.91;3113351;28;20100;-69
2024/01/15 06:54:12;;;;;;;56.05;21.90;;;;;;;-1.89;72.94;99203.19;3116073;28;20050;-69
2024/01/15 06:55:44;;;;;;;48.72;20.33;;;;;;;-1.93;72.75;99188.72;3118613;28;20201;-70
2024/01/15 06:57:15;;;;;;;59.90;22.42;;;;;;;-1.84;72.59;99204.00;3118452;28;20045;-75
2024/01/15 06:58:48;;;;;;;85.05;36.95;;;;;;;-1.83;72.59;99200.63;3107845;28;20050;-72
2024/01/15 07:00:19;;;;;;;64.40;32.55;;;;;;;-1.81;72.67;99201.44;3118799;28;20076;-70
2024/01/15 07:01:51;;;;;;;78.40;32.50;;;;;;;-1.77;72.63;99203.13;3113670;28;20053;-71